sensor_id;sensor_type;location;lat;lon;timestamp;P1;durP1;ratioP1;P2;durP2;ratioP2
19032;SDS011;9649;51.042;13.804;2024-02-26T00:05:34;41.40;;;23.50;;
19032;SDS011;9649;51.042;13.804;2024-02-26T00:12:17;41.07;;;22.33;;
19032;SDS011;9649;51.042;13.804;2024-02-26T00:17:15;37.80;;;22.50;;
19032;SDS011;9649;51.042;13.804;2024-02-26T00:22:57;39.43;;;22.83;;
19032;SDS011;9649;51.042;13.804;2024-02-26T00:28:51;37.67;;;22.33;;
19032;SDS011;9649;51.042;13.804;2024-02-26T00:34:33;33.40;;;19.83;;
19032;SDS011;9649;51.042;13.804;2024-02-26T00:40:30;32.00;;;19.30;;
19032;SDS011;9649;51.042;13.804;2024-02-26T00:52:23;38.67;;;21.23;;
19032;SDS011;9649;51.042;13.804;2024-02-26T00:58:06;32.07;;;19.50;;
19032;SDS011;9649;51.042;13.804;2024-02-26T01:03:48;32.87;;;19.60;;
19032;SDS011;9649;51.042;13.804;2024-02-26T01:09:13;33.67;;;20.57;;
19032;SDS011;9649;51.042;13.804;2024-02-26T01:15:04;33.73;;;19.97;;
19032;SDS011;9649;51.042;13.804;2024-02-26T01:20:59;32.17;;;18.70;;
19032;SDS011;9649;51.042;13.804;2024-02-26T01:26:28;36.23;;;19.87;;
19032;SDS011;9649;51.042;13.804;2024-02-26T01:44:17;35.67;;;19.97;;
19032;SDS011;9649;51.042;13.804;2024-02-26T01:50:13;32.00;;;18.60;;
19032;SDS011;9649;51.042;13.804;2024-02-26T02:08:02;32.87;;;19.20;;
19032;SDS011;9649;51.042;13.804;2024-02-26T02:13:45;34.10;;;18.10;;
19032;SDS011;9649;51.042;13.804;2024-02-26T02:19:36;30.67;;;17.23;;
19032;SDS011;9649;51.042;13.804;2024-02-26T02:25:17;33.00;;;18.47;;
19032;SDS011;9649;51.042;13.804;2024-02-26T02:31:00;30.87;;;18.03;;
19032;SDS011;9649;51.042;13.804;2024-02-26T02:36:28;34.53;;;18.50;;
19032;SDS011;9649;51.042;13.804;2024-02-26T02:47:42;29.53;;;17.30;;
19032;SDS011;9649;51.042;13.804;2024-02-26T02:53:12;34.67;;;17.50;;
19032;SDS011;9649;51.042;13.804;2024-02-26T02:58:38;36.20;;;19.00;;
19032;SDS011;9649;51.042;13.804;2024-02-26T03:04:40;32.73;;;18.57;;
19032;SDS011;9649;51.042;13.804;2024-02-26T03:10:14;33.63;;;20.20;;
19032;SDS011;9649;51.042;13.804;2024-02-26T03:15:55;31.33;;;17.70;;
19032;SDS011;9649;51.042;13.804;2024-02-26T03:33:24;29.43;;;17.33;;
19032;SDS011;9649;51.042;13.804;2024-02-26T03:39:08;33.17;;;18.77;;
19032;SDS011;9649;51.042;13.804;2024-02-26T03:44:47;33.10;;;18.70;;
19032;SDS011;9649;51.042;13.804;2024-02-26T03:50:29;34.40;;;19.30;;
19032;SDS011;9649;51.042;13.804;2024-02-26T03:56:18;36.27;;;19.17;;
19032;SDS011;9649;51.042;13.804;2024-02-26T04:02:27;33.13;;;18.57;;
19032;SDS011;9649;51.042;13.804;2024-02-26T04:07:57;33.30;;;18.67;;
19032;SDS011;9649;51.042;13.804;2024-02-26T04:13:52;30.40;;;17.53;;
19032;SDS011;9649;51.042;13.804;2024-02-26T04:19:46;31.47;;;17.03;;
19032;SDS011;9649;51.042;13.804;2024-02-26T04:25:27;31.80;;;18.20;;
19032;SDS011;9649;51.042;13.804;2024-02-26T04:36:45;34.17;;;17.60;;
19032;SDS011;9649;51.042;13.804;2024-02-26T04:42:10;34.17;;;17.47;;
19032;SDS011;9649;51.042;13.804;2024-02-26T04:53:50;33.30;;;17.57;;
19032;SDS011;9649;51.042;13.804;2024-02-26T04:59:21;30.77;;;17.27;;
19032;SDS011;9649;51.042;13.804;2024-02-26T05:05:46;42.53;;;23.10;;
19032;SDS011;9649;51.042;13.804;2024-02-26T05:10:51;38.47;;;19.67;;
19032;SDS011;9649;51.042;13.804;2024-02-26T05:16:19;47.87;;;25.03;;
19032;SDS011;9649;51.042;13.804;2024-02-26T05:21:55;33.50;;;18.50;;
19032;SDS011;9649;51.042;13.804;2024-02-26T05:33:44;32.17;;;16.60;;
19032;SDS011;9649;51.042;13.804;2024-02-26T05:39:36;35.63;;;18.13;;
19032;SDS011;9649;51.042;13.804;2024-02-26T05:45:34;31.70;;;17.50;;
19032;SDS011;9649;51.042;13.804;2024-02-26T05:51:42;31.07;;;17.33;;
19032;SDS011;9649;51.042;13.804;2024-02-26T05:57:09;34.90;;;18.20;;
19032;SDS011;9649;51.042;13.804;2024-02-26T06:02:15;32.33;;;16.97;;
19032;SDS011;9649;51.042;13.804;2024-02-26T06:12:58;35.33;;;18.73;;
19032;SDS011;9649;51.042;13.804;2024-02-26T06:18:03;34.30;;;18.53;;
19032;SDS011;9649;51.042;13.804;2024-02-26T06:23:07;33.07;;;19.30;;
19032;SDS011;9649;51.042;13.804;2024-02-26T06:28:12;37.10;;;18.70;;
19032;SDS011;9649;51.042;13.804;2024-02-26T06:33:15;36.07;;;19.40;;
19032;SDS011;9649;51.042;13.804;2024-02-26T06:38:18;39.00;;;21.33;;
19032;SDS011;9649;51.042;13.804;2024-02-26T06:43:22;36.07;;;18.67;;
19032;SDS011;9649;51.042;13.804;2024-02-26T06:48:25;33.70;;;19.10;;
19032;SDS011;9649;51.042;13.804;2024-02-26T06:53:27;35.10;;;18.87;;
19032;SDS011;9649;51.042;13.804;2024-02-26T06:58:32;39.63;;;20.43;;
19032;SDS011;9649;51.042;13.804;2024-02-26T07:03:36;43.50;;;21.83;;
19032;SDS011;9649;51.042;13.804;2024-02-26T07:09:37;46.87;;;23.37;;
19032;SDS011;9649;51.042;13.804;2024-02-26T07:14:42;35.50;;;19.37;;
19032;SDS011;9649;51.042;13.804;2024-02-26T07:19:46;33.10;;;17.20;;
19032;SDS011;9649;51.042;13.804;2024-02-26T07:24:52;23.20;;;14.67;;
19032;SDS011;9649;51.042;13.804;2024-02-26T07:29:57;21.87;;;13.03;;
19032;SDS011;9649;51.042;13.804;2024-02-26T07:35:00;20.53;;;12.40;;
19032;SDS011;9649;51.042;13.804;2024-02-26T07:40:22;17.20;;;10.40;;
19032;SDS011;9649;51.042;13.804;2024-02-26T07:46:07;19.80;;;10.57;;
19032;SDS011;9649;51.042;13.804;2024-02-26T07:51:21;18.43;;;8.60;;
19032;SDS011;9649;51.042;13.804;2024-02-26T07:56:34;20.03;;;9.90;;
19032;SDS011;9649;51.042;13.804;2024-02-26T08:02:14;11.15;;;7.53;;
19032;SDS011;9649;51.042;13.804;2024-02-26T08:07:43;12.30;;;7.05;;
19032;SDS011;9649;51.042;13.804;2024-02-26T08:19:43;12.32;;;6.45;;
19032;SDS011;9649;51.042;13.804;2024-02-26T08:25:06;11.60;;;6.10;;
19032;SDS011;9649;51.042;13.804;2024-02-26T08:31:17;10.43;;;6.35;;
19032;SDS011;9649;51.042;13.804;2024-02-26T08:37:13;14.40;;;6.25;;
19032;SDS011;9649;51.042;13.804;2024-02-26T08:42:26;10.40;;;6.28;;
19032;SDS011;9649;51.042;13.804;2024-02-26T08:47:52;11.68;;;6.60;;
19032;SDS011;9649;51.042;13.804;2024-02-26T08:53:18;11.07;;;6.15;;
19032;SDS011;9649;51.042;13.804;2024-02-26T08:59:09;12.30;;;6.57;;
19032;SDS011;9649;51.042;13.804;2024-02-26T09:04:12;11.85;;;6.55;;
19032;SDS011;9649;51.042;13.804;2024-02-26T09:09:31;11.35;;;6.35;;
19032;SDS011;9649;51.042;13.804;2024-02-26T09:15:08;13.05;;;6.78;;
19032;SDS011;9649;51.042;13.804;2024-02-26T09:25:40;11.60;;;6.95;;
19032;SDS011;9649;51.042;13.804;2024-02-26T09:31:10;12.07;;;6.78;;
19032;SDS011;9649;51.042;13.804;2024-02-26T09:36:19;10.18;;;6.72;;
19032;SDS011;9649;51.042;13.804;2024-02-26T09:41:35;12.25;;;6.70;;
19032;SDS011;9649;51.042;13.804;2024-02-26T09:46:55;9.00;;;6.63;;
19032;SDS011;9649;51.042;13.804;2024-02-26T09:51:58;12.50;;;7.22;;
19032;SDS011;9649;51.042;13.804;2024-02-26T09:57:05;11.45;;;6.40;;
19032;SDS011;9649;51.042;13.804;2024-02-26T10:02:16;9.50;;;6.00;;
19032;SDS011;9649;51.042;13.804;2024-02-26T10:07:24;10.23;;;6.22;;
19032;SDS011;9649;51.042;13.804;2024-02-26T10:18:49;12.30;;;5.93;;
19032;SDS011;9649;51.042;13.804;2024-02-26T10:24:08;11.00;;;6.28;;
19032;SDS011;9649;51.042;13.804;2024-02-26T10:29:19;9.10;;;5.20;;
19032;SDS011;9649;51.042;13.804;2024-02-26T10:34:24;10.40;;;5.88;;
19032;SDS011;9649;51.042;13.804;2024-02-26T10:39:28;12.55;;;6.03;;
19032;SDS011;9649;51.042;13.804;2024-02-26T10:44:31;9.55;;;5.93;;
19032;SDS011;9649;51.042;13.804;2024-02-26T10:49:35;9.85;;;5.88;;
19032;SDS011;9649;51.042;13.804;2024-02-26T10:54:38;9.32;;;6.10;;
19032;SDS011;9649;51.042;13.804;2024-02-26T10:59:45;9.30;;;6.28;;
19032;SDS011;9649;51.042;13.804;2024-02-26T11:04:49;9.35;;;5.93;;
19032;SDS011;9649;51.042;13.804;2024-02-26T11:09:53;8.88;;;6.32;;
19032;SDS011;9649;51.042;13.804;2024-02-26T11:14:57;8.75;;;5.68;;
19032;SDS011;9649;51.042;13.804;2024-02-26T11:20:04;9.98;;;5.80;;
19032;SDS011;9649;51.042;13.804;2024-02-26T11:25:12;12.60;;;6.05;;
19032;SDS011;9649;51.042;13.804;2024-02-26T11:30:18;9.25;;;5.90;;
19032;SDS011;9649;51.042;13.804;2024-02-26T11:35:23;8.45;;;5.95;;
19032;SDS011;9649;51.042;13.804;2024-02-26T11:40:26;8.70;;;5.95;;
19032;SDS011;9649;51.042;13.804;2024-02-26T11:45:48;13.57;;;5.95;;
19032;SDS011;9649;51.042;13.804;2024-02-26T11:50:55;8.02;;;5.70;;
19032;SDS011;9649;51.042;13.804;2024-02-26T11:56:13;8.73;;;6.07;;
19032;SDS011;9649;51.042;13.804;2024-02-26T12:01:39;10.30;;;5.95;;
19032;SDS011;9649;51.042;13.804;2024-02-26T12:06:45;8.82;;;6.30;;
19032;SDS011;9649;51.042;13.804;2024-02-26T12:11:49;10.10;;;6.45;;
19032;SDS011;9649;51.042;13.804;2024-02-26T12:16:52;9.55;;;6.30;;
19032;SDS011;9649;51.042;13.804;2024-02-26T12:21:58;9.52;;;5.90;;
19032;SDS011;9649;51.042;13.804;2024-02-26T12:27:01;10.75;;;6.13;;
19032;SDS011;9649;51.042;13.804;2024-02-26T12:32:04;9.07;;;5.97;;
19032;SDS011;9649;51.042;13.804;2024-02-26T12:37:10;8.15;;;5.75;;
19032;SDS011;9649;51.042;13.804;2024-02-26T12:42:13;11.45;;;6.35;;
19032;SDS011;9649;51.042;13.804;2024-02-26T12:47:16;11.23;;;6.20;;
19032;SDS011;9649;51.042;13.804;2024-02-26T12:52:21;10.05;;;6.00;;
19032;SDS011;9649;51.042;13.804;2024-02-26T12:57:24;9.07;;;5.82;;
19032;SDS011;9649;51.042;13.804;2024-02-26T13:02:30;12.10;;;6.18;;
19032;SDS011;9649;51.042;13.804;2024-02-26T13:07:35;9.55;;;5.43;;
19032;SDS011;9649;51.042;13.804;2024-02-26T13:12:43;8.98;;;5.45;;
19032;SDS011;9649;51.042;13.804;2024-02-26T13:17:47;8.52;;;5.30;;
19032;SDS011;9649;51.042;13.804;2024-02-26T13:22:52;8.70;;;5.22;;
19032;SDS011;9649;51.042;13.804;2024-02-26T13:28:06;9.98;;;5.97;;
19032;SDS011;9649;51.042;13.804;2024-02-26T13:33:10;8.80;;;5.28;;
19032;SDS011;9649;51.042;13.804;2024-02-26T13:38:16;9.57;;;4.85;;
19032;SDS011;9649;51.042;13.804;2024-02-26T13:43:19;8.85;;;5.20;;
19032;SDS011;9649;51.042;13.804;2024-02-26T13:48:21;9.23;;;5.40;;
19032;SDS011;9649;51.042;13.804;2024-02-26T13:53:26;9.13;;;5.68;;
19032;SDS011;9649;51.042;13.804;2024-02-26T13:58:31;9.68;;;5.97;;
19032;SDS011;9649;51.042;13.804;2024-02-26T14:03:34;10.20;;;6.00;;
19032;SDS011;9649;51.042;13.804;2024-02-26T14:08:38;11.32;;;6.47;;
19032;SDS011;9649;51.042;13.804;2024-02-26T14:13:41;11.00;;;6.78;;
19032;SDS011;9649;51.042;13.804;2024-02-26T14:18:46;10.52;;;6.82;;
19032;SDS011;9649;51.042;13.804;2024-02-26T14:23:50;12.38;;;6.70;;
19032;SDS011;9649;51.042;13.804;2024-02-26T14:28:53;13.80;;;6.85;;
19032;SDS011;9649;51.042;13.804;2024-02-26T14:33:57;11.32;;;6.88;;
19032;SDS011;9649;51.042;13.804;2024-02-26T14:39:01;9.07;;;6.07;;
19032;SDS011;9649;51.042;13.804;2024-02-26T14:44:04;12.50;;;6.13;;
19032;SDS011;9649;51.042;13.804;2024-02-26T14:49:07;14.30;;;6.82;;
19032;SDS011;9649;51.042;13.804;2024-02-26T14:54:15;12.98;;;6.70;;
19032;SDS011;9649;51.042;13.804;2024-02-26T14:59:18;11.10;;;6.47;;
19032;SDS011;9649;51.042;13.804;2024-02-26T15:04:21;9.68;;;6.53;;
19032;SDS011;9649;51.042;13.804;2024-02-26T15:09:25;10.93;;;6.15;;
19032;SDS011;9649;51.042;13.804;2024-02-26T15:14:28;10.98;;;6.57;;
19032;SDS011;9649;51.042;13.804;2024-02-26T15:19:31;10.95;;;6.28;;
19032;SDS011;9649;51.042;13.804;2024-02-26T15:24:35;10.40;;;6.65;;
19032;SDS011;9649;51.042;13.804;2024-02-26T15:29:38;10.35;;;7.03;;
19032;SDS011;9649;51.042;13.804;2024-02-26T15:34:41;9.73;;;5.68;;
19032;SDS011;9649;51.042;13.804;2024-02-26T15:39:46;11.13;;;6.57;;
19032;SDS011;9649;51.042;13.804;2024-02-26T15:44:49;12.40;;;6.90;;
19032;SDS011;9649;51.042;13.804;2024-02-26T15:49:52;11.80;;;7.32;;
19032;SDS011;9649;51.042;13.804;2024-02-26T15:54:56;12.25;;;7.40;;
19032;SDS011;9649;51.042;13.804;2024-02-26T15:59:59;11.98;;;7.35;;
19032;SDS011;9649;51.042;13.804;2024-02-26T16:05:07;11.05;;;7.00;;
19032;SDS011;9649;51.042;13.804;2024-02-26T16:10:13;9.75;;;6.43;;
19032;SDS011;9649;51.042;13.804;2024-02-26T16:15:16;11.18;;;6.65;;
19032;SDS011;9649;51.042;13.804;2024-02-26T16:20:22;10.07;;;6.40;;
19032;SDS011;9649;51.042;13.804;2024-02-26T16:25:27;11.20;;;6.78;;
19032;SDS011;9649;51.042;13.804;2024-02-26T16:30:30;12.85;;;6.82;;
19032;SDS011;9649;51.042;13.804;2024-02-26T16:35:33;10.02;;;6.55;;
19032;SDS011;9649;51.042;13.804;2024-02-26T16:46:02;13.07;;;7.75;;
19032;SDS011;9649;51.042;13.804;2024-02-26T16:51:06;10.90;;;7.05;;
19032;SDS011;9649;51.042;13.804;2024-02-26T16:56:11;11.97;;;7.20;;
19032;SDS011;9649;51.042;13.804;2024-02-26T17:01:14;13.93;;;8.25;;
19032;SDS011;9649;51.042;13.804;2024-02-26T17:06:17;13.80;;;8.13;;
19032;SDS011;9649;51.042;13.804;2024-02-26T17:11:26;12.60;;;7.57;;
19032;SDS011;9649;51.042;13.804;2024-02-26T17:16:31;14.35;;;8.48;;
19032;SDS011;9649;51.042;13.804;2024-02-26T17:21:37;13.70;;;8.20;;
19032;SDS011;9649;51.042;13.804;2024-02-26T17:26:41;12.13;;;8.10;;
19032;SDS011;9649;51.042;13.804;2024-02-26T17:31:44;15.35;;;8.07;;
19032;SDS011;9649;51.042;13.804;2024-02-26T17:36:47;15.00;;;9.07;;
19032;SDS011;9649;51.042;13.804;2024-02-26T17:41:51;17.67;;;9.10;;
19032;SDS011;9649;51.042;13.804;2024-02-26T17:46:54;14.60;;;7.87;;
19032;SDS011;9649;51.042;13.804;2024-02-26T17:51:57;14.67;;;8.30;;
19032;SDS011;9649;51.042;13.804;2024-02-26T17:57:01;13.65;;;7.78;;
19032;SDS011;9649;51.042;13.804;2024-02-26T18:02:07;11.13;;;7.22;;
19032;SDS011;9649;51.042;13.804;2024-02-26T18:07:12;16.70;;;8.50;;
19032;SDS011;9649;51.042;13.804;2024-02-26T18:12:24;14.02;;;8.73;;
19032;SDS011;9649;51.042;13.804;2024-02-26T18:17:27;12.67;;;8.00;;
19032;SDS011;9649;51.042;13.804;2024-02-26T18:22:30;19.80;;;9.70;;
19032;SDS011;9649;51.042;13.804;2024-02-26T18:27:36;19.63;;;9.67;;
19032;SDS011;9649;51.042;13.804;2024-02-26T18:32:42;14.40;;;9.03;;
19032;SDS011;9649;51.042;13.804;2024-02-26T18:37:46;13.57;;;9.00;;
19032;SDS011;9649;51.042;13.804;2024-02-26T18:42:50;18.10;;;10.30;;
19032;SDS011;9649;51.042;13.804;2024-02-26T18:47:53;18.50;;;10.20;;
19032;SDS011;9649;51.042;13.804;2024-02-26T18:52:56;17.37;;;9.00;;
19032;SDS011;9649;51.042;13.804;2024-02-26T18:58:04;15.33;;;8.43;;
19032;SDS011;9649;51.042;13.804;2024-02-26T19:03:07;14.77;;;8.93;;
19032;SDS011;9649;51.042;13.804;2024-02-26T19:08:14;15.63;;;9.13;;
19032;SDS011;9649;51.042;13.804;2024-02-26T19:13:19;17.10;;;9.73;;
19032;SDS011;9649;51.042;13.804;2024-02-26T19:18:23;15.13;;;8.83;;
19032;SDS011;9649;51.042;13.804;2024-02-26T19:23:28;14.50;;;9.50;;
19032;SDS011;9649;51.042;13.804;2024-02-26T19:28:33;16.17;;;9.50;;
19032;SDS011;9649;51.042;13.804;2024-02-26T19:33:36;18.37;;;9.77;;
19032;SDS011;9649;51.042;13.804;2024-02-26T19:38:39;14.33;;;8.83;;
19032;SDS011;9649;51.042;13.804;2024-02-26T19:43:45;12.93;;;8.20;;
19032;SDS011;9649;51.042;13.804;2024-02-26T19:48:48;13.70;;;8.77;;
19032;SDS011;9649;51.042;13.804;2024-02-26T19:53:52;16.07;;;8.63;;
19032;SDS011;9649;51.042;13.804;2024-02-26T19:58:56;12.77;;;8.40;;
19032;SDS011;9649;51.042;13.804;2024-02-26T20:04:02;13.77;;;9.13;;
19032;SDS011;9649;51.042;13.804;2024-02-26T20:09:12;16.80;;;10.27;;
19032;SDS011;9649;51.042;13.804;2024-02-26T20:14:19;20.67;;;10.30;;
19032;SDS011;9649;51.042;13.804;2024-02-26T20:19:28;17.33;;;10.37;;
19032;SDS011;9649;51.042;13.804;2024-02-26T20:24:31;17.93;;;10.83;;
19032;SDS011;9649;51.042;13.804;2024-02-26T20:29:40;18.47;;;10.87;;
19032;SDS011;9649;51.042;13.804;2024-02-26T20:34:44;21.03;;;11.97;;
19032;SDS011;9649;51.042;13.804;2024-02-26T20:39:49;22.53;;;12.07;;
19032;SDS011;9649;51.042;13.804;2024-02-26T20:44:56;20.73;;;11.80;;
19032;SDS011;9649;51.042;13.804;2024-02-26T20:50:01;17.70;;;10.77;;
19032;SDS011;9649;51.042;13.804;2024-02-26T20:55:07;17.90;;;10.10;;
19032;SDS011;9649;51.042;13.804;2024-02-26T21:00:13;17.03;;;9.60;;
19032;SDS011;9649;51.042;13.804;2024-02-26T21:05:16;22.47;;;10.80;;
19032;SDS011;9649;51.042;13.804;2024-02-26T21:10:20;16.73;;;9.60;;
19032;SDS011;9649;51.042;13.804;2024-02-26T21:15:26;19.60;;;11.17;;
19032;SDS011;9649;51.042;13.804;2024-02-26T21:20:30;24.77;;;12.20;;
19032;SDS011;9649;51.042;13.804;2024-02-26T21:25:34;19.83;;;11.43;;
19032;SDS011;9649;51.042;13.804;2024-02-26T21:30:38;20.67;;;12.33;;
19032;SDS011;9649;51.042;13.804;2024-02-26T21:35:41;23.20;;;13.17;;
19032;SDS011;9649;51.042;13.804;2024-02-26T21:40:44;23.23;;;13.13;;
19032;SDS011;9649;51.042;13.804;2024-02-26T21:45:48;26.97;;;13.10;;
19032;SDS011;9649;51.042;13.804;2024-02-26T21:50:51;23.43;;;13.23;;
19032;SDS011;9649;51.042;13.804;2024-02-26T21:55:55;24.03;;;12.93;;
19032;SDS011;9649;51.042;13.804;2024-02-26T22:01:00;24.73;;;14.37;;
19032;SDS011;9649;51.042;13.804;2024-02-26T22:06:03;22.27;;;13.93;;
19032;SDS011;9649;51.042;13.804;2024-02-26T22:11:06;27.57;;;15.47;;
19032;SDS011;9649;51.042;13.804;2024-02-26T22:16:11;23.40;;;13.63;;
19032;SDS011;9649;51.042;13.804;2024-02-26T22:21:14;22.33;;;13.50;;
19032;SDS011;9649;51.042;13.804;2024-02-26T22:26:16;26.53;;;15.03;;
19032;SDS011;9649;51.042;13.804;2024-02-26T22:31:21;29.03;;;13.77;;
19032;SDS011;9649;51.042;13.804;2024-02-26T22:36:26;24.43;;;14.10;;
19032;SDS011;9649;51.042;13.804;2024-02-26T22:41:29;28.27;;;14.40;;
19032;SDS011;9649;51.042;13.804;2024-02-26T22:46:34;30.47;;;15.30;;
19032;SDS011;9649;51.042;13.804;2024-02-26T22:51:37;24.80;;;14.60;;
19032;SDS011;9649;51.042;13.804;2024-02-26T22:56:39;26.97;;;14.13;;
19032;SDS011;9649;51.042;13.804;2024-02-26T23:01:46;31.00;;;14.90;;
19032;SDS011;9649;51.042;13.804;2024-02-26T23:06:49;23.97;;;13.40;;
19032;SDS011;9649;51.042;13.804;2024-02-26T23:11:54;28.30;;;14.30;;
19032;SDS011;9649;51.042;13.804;2024-02-26T23:16:58;24.10;;;14.30;;
19032;SDS011;9649;51.042;13.804;2024-02-26T23:22:01;27.27;;;14.53;;
19032;SDS011;9649;51.042;13.804;2024-02-26T23:27:04;27.47;;;14.93;;
19032;SDS011;9649;51.042;13.804;2024-02-26T23:32:08;27.37;;;15.33;;
19032;SDS011;9649;51.042;13.804;2024-02-26T23:37:10;24.40;;;13.87;;
19032;SDS011;9649;51.042;13.804;2024-02-26T23:42:13;27.43;;;14.83;;
19032;SDS011;9649;51.042;13.804;2024-02-26T23:47:17;24.37;;;13.83;;
19032;SDS011;9649;51.042;13.804;2024-02-26T23:52:23;27.13;;;15.90;;
19032;SDS011;9649;51.042;13.804;2024-02-26T23:57:26;27.07;;;15.40;;
